Time;durP1;ratioP1;P1;durP2;ratioP2;P2;SDS_P1;SDS_P2;PMS_P1;PMS_P2;Temp;Humidity;BMP_temperature;BMP_pressure;BME280_temperature;BME280_humidity;BME280_pressure;Samples;Min_cycle;Max_cycle;Signal;HPM_P1;HPM_P2
2021/10/10 00:00:29;;;;;;;15.95;7.97;;;;;;;;;;5096075;28;20036;-77
2021/10/10 00:02:54;;;;;;;14.60;7.72;;;;;;;;;;5096485;28;20036;-78
2021/10/10 00:05:20;;;;;;;14.32;7.60;;;;;;;;;;5096507;28;20035;-76
2021/10/10 00:07:45;;;;;;;14.57;7.88;;;;;;;;;;5096128;28;20488;-79
2021/10/10 00:10:12;;;;;;;11.98;8.32;;;;;;;;;;5096011;28;20038;-77
2021/10/10 00:12:38;;;;;;;17.63;7.35;;;;;;;;;;5086343;28;20028;-77
2021/10/10 00:15:06;;;;;;;13.73;6.97;;;;;;;;;;5075658;28;20043;-77
2021/10/10 00:17:31;;;;;;;15.43;6.50;;;;;;;;;;5075769;28;20056;-78
2021/10/10 00:19:57;;;;;;;11.98;6.45;;;;;;;;;;5073734;28;20166;-77
2021/10/10 00:22:22;;;;;;;11.73;6.15;;;;;;;;;;5075756;28;20036;-78
2021/10/10 00:24:47;;;;;;;9.60;6.15;;;;;;;;;;5075544;28;20037;-77
2021/10/10 00:27:13;;;;;;;15.10;6.97;;;;;;;;;;5075520;28;20032;-77
2021/10/10 00:29:38;;;;;;;12.15;5.97;;;;;;;;;;5074350;28;20032;-77
2021/10/10 00:32:04;;;;;;;7.10;5.15;;;;;;;;;;5075727;28;20040;-77
2021/10/10 00:34:29;;;;;;;14.07;5.82;;;;;;;;;;5075403;28;20036;-76
2021/10/10 00:36:54;;;;;;;10.27;5.90;;;;;;;;;;5075617;28;20119;-76
2021/10/10 00:39:20;;;;;;;14.18;7.75;;;;;;;;;;5075121;28;20060;-77
2021/10/10 00:41:45;;;;;;;14.13;8.25;;;;;;;;;;5076718;28;20048;-77
2021/10/10 00:44:12;;;;;;;16.42;9.30;;;;;;;;;;5095017;28;20077;-76
2021/10/10 00:46:38;;;;;;;18.67;7.53;;;;;;;;;;5095677;28;20032;-77
2021/10/10 00:49:04;;;;;;;12.18;6.25;;;;;;;;;;5095715;28;20028;-76
2021/10/10 00:51:43;;;;;;;13.65;5.82;;;;;;;;;;5095565;28;20058;-77
2021/10/10 00:54:10;;;;;;;8.48;4.97;;;;;;;;;;5093802;28;20486;-77
2021/10/10 00:56:36;;;;;;;10.00;5.68;;;;;;;;;;5094687;28;20218;-78
2021/10/10 00:59:03;;;;;;;14.70;6.30;;;;;;;;;;5094946;28;20048;-78
2021/10/10 01:01:29;;;;;;;15.35;6.95;;;;;;;;;;5095040;28;20085;-77
2021/10/10 01:03:56;;;;;;;43.80;8.82;;;;;;;;;;5095210;28;20044;-77
2021/10/10 01:06:21;;;;;;;18.08;7.10;;;;;;;;;;5095169;28;20039;-78
2021/10/10 01:08:47;;;;;;;16.15;8.35;;;;;;;;;;5095012;28;20497;-77
2021/10/10 01:11:13;;;;;;;10.48;7.30;;;;;;;;;;5094669;28;20074;-76
2021/10/10 01:13:42;;;;;;;17.38;9.00;;;;;;;;;;5095051;28;20032;-77
2021/10/10 01:16:07;;;;;;;12.77;6.47;;;;;;;;;;5094812;28;20071;-77
2021/10/10 01:18:33;;;;;;;13.45;6.50;;;;;;;;;;5094930;28;20074;-77
2021/10/10 01:20:59;;;;;;;15.10;7.45;;;;;;;;;;5094734;28;20442;-78
2021/10/10 01:23:24;;;;;;;11.55;6.70;;;;;;;;;;5094774;28;20481;-77
2021/10/10 01:25:51;;;;;;;14.68;6.93;;;;;;;;;;5094745;28;20043;-77
2021/10/10 01:28:17;;;;;;;14.35;8.15;;;;;;;;;;5093230;28;20035;-77
2021/10/10 01:30:42;;;;;;;10.30;6.70;;;;;;;;;;5093622;28;20404;-76
2021/10/10 01:33:10;;;;;;;11.40;7.00;;;;;;;;;;5094676;28;20516;-76
2021/10/10 01:35:37;;;;;;;14.25;6.35;;;;;;;;;;5093479;28;20389;-77
2021/10/10 01:38:03;;;;;;;12.85;7.03;;;;;;;;;;5094347;28;20039;-77
2021/10/10 01:40:29;;;;;;;12.45;6.53;;;;;;;;;;5090079;28;20124;-77
2021/10/10 01:42:54;;;;;;;16.10;6.43;;;;;;;;;;5096359;28;20118;-78
2021/10/10 01:45:22;;;;;;;13.98;5.93;;;;;;;;;;5114641;28;20088;-77
2021/10/10 01:47:47;;;;;;;15.88;7.30;;;;;;;;;;5114498;28;20035;-79
2021/10/10 01:50:14;;;;;;;20.13;7.22;;;;;;;;;;5114630;28;20031;-77
2021/10/10 01:52:46;;;;;;;14.55;7.57;;;;;;;;;;5113349;28;20495;-77
2021/10/10 01:55:12;;;;;;;35.20;7.93;;;;;;;;;;5114336;28;20469;-77
2021/10/10 01:57:38;;;;;;;29.00;7.35;;;;;;;;;;5114064;28;20118;-76
2021/10/10 02:00:07;;;;;;;42.03;7.55;;;;;;;;;;5114377;28;20111;-76
2021/10/10 02:02:37;;;;;;;21.10;6.97;;;;;;;;;;5114507;28;20110;-77
2021/10/10 02:05:03;;;;;;;10.35;6.85;;;;;;;;;;5114303;28;20118;-78
2021/10/10 02:07:29;;;;;;;11.68;6.93;;;;;;;;;;5114283;28;20114;-76
2021/10/10 02:09:54;;;;;;;20.08;6.70;;;;;;;;;;5114161;28;20544;-76
2021/10/10 02:12:20;;;;;;;40.53;7.40;;;;;;;;;;5107255;28;20425;-76
2021/10/10 02:14:45;;;;;;;112.90;8.80;;;;;;;;;;5093957;28;20107;-78
2021/10/10 02:17:10;;;;;;;89.28;7.20;;;;;;;;;;5093736;28;20066;-76
2021/10/10 02:19:36;;;;;;;11.90;6.68;;;;;;;;;;5093958;28;20036;-76
2021/10/10 02:22:01;;;;;;;12.40;7.47;;;;;;;;;;5093820;28;20074;-77
2021/10/10 02:24:27;;;;;;;14.18;7.70;;;;;;;;;;5093691;28;20031;-76
2021/10/10 02:26:52;;;;;;;10.90;7.20;;;;;;;;;;5093822;28;20031;-77
2021/10/10 02:29:17;;;;;;;8.45;6.07;;;;;;;;;;5093205;28;20093;-78
2021/10/10 02:31:43;;;;;;;12.25;7.07;;;;;;;;;;5093754;28;20043;-78
2021/10/10 02:34:10;;;;;;;95.32;8.50;;;;;;;;;;5093579;28;20075;-77
2021/10/10 02:36:36;;;;;;;15.82;8.02;;;;;;;;;;5093695;28;20035;-78
2021/10/10 02:39:03;;;;;;;11.57;8.10;;;;;;;;;;5093101;28;20052;-77
2021/10/10 02:41:29;;;;;;;24.20;7.25;;;;;;;;;;5112312;28;20484;-77
2021/10/10 02:43:54;;;;;;;52.15;9.25;;;;;;;;;;5113721;28;20036;-77
2021/10/10 02:46:20;;;;;;;13.43;7.97;;;;;;;;;;5113886;28;20043;-78
2021/10/10 02:48:49;;;;;;;14.88;8.30;;;;;;;;;;5113893;28;20084;-78
2021/10/10 02:51:14;;;;;;;14.70;8.77;;;;;;;;;;5113681;28;20035;-77
2021/10/10 02:53:40;;;;;;;18.15;9.20;;;;;;;;;;5113918;28;20031;-77
2021/10/10 02:56:06;;;;;;;18.00;8.68;;;;;;;;;;5113738;28;20440;-77
2021/10/10 02:58:32;;;;;;;14.30;7.97;;;;;;;;;;5113444;28;20511;-77
2021/10/10 03:00:57;;;;;;;16.90;8.10;;;;;;;;;;5113259;28;20100;-78
2021/10/10 03:03:23;;;;;;;22.10;8.15;;;;;;;;;;5113728;28;20474;-77
2021/10/10 03:05:49;;;;;;;55.08;8.20;;;;;;;;;;5113570;28;20024;-77
2021/10/10 03:08:15;;;;;;;63.33;8.80;;;;;;;;;;5112338;28;20497;-77
2021/10/10 03:10:41;;;;;;;52.13;8.02;;;;;;;;;;5113799;28;20032;-78
2021/10/10 03:13:06;;;;;;;124.38;9.45;;;;;;;;;;5112077;28;20039;-77
2021/10/10 03:15:32;;;;;;;83.25;9.52;;;;;;;;;;5113460;28;20027;-78
2021/10/10 03:17:57;;;;;;;220.95;10.93;;;;;;;;;;5113545;28;20050;-76
2021/10/10 03:20:23;;;;;;;182.63;10.60;;;;;;;;;;5113716;28;20047;-77
2021/10/10 03:22:48;;;;;;;161.60;11.40;;;;;;;;;;5113260;28;20038;-78
2021/10/10 03:25:13;;;;;;;258.13;11.88;;;;;;;;;;5113543;28;20028;-77
2021/10/10 03:27:39;;;;;;;293.10;12.30;;;;;;;;;;5113119;28;20034;-77
2021/10/10 03:30:05;;;;;;;147.40;8.85;;;;;;;;;;5113377;28;20028;-77
2021/10/10 03:32:31;;;;;;;12.77;8.52;;;;;;;;;;5113827;28;20421;-77
2021/10/10 03:34:56;;;;;;;23.95;8.18;;;;;;;;;;5113379;28;20105;-77
2021/10/10 03:37:22;;;;;;;11.50;8.07;;;;;;;;;;5113569;28;20469;-77
2021/10/10 03:39:47;;;;;;;13.07;8.45;;;;;;;;;;5113149;28;20052;-77
2021/10/10 03:42:13;;;;;;;138.45;8.43;;;;;;;;;;5113256;28;20068;-77
2021/10/10 03:44:38;;;;;;;47.25;7.70;;;;;;;;;;5079292;28;20036;-78
2021/10/10 03:47:04;;;;;;;17.83;8.18;;;;;;;;;;5072830;28;20044;-78
2021/10/10 03:49:29;;;;;;;150.63;9.57;;;;;;;;;;5072604;28;20098;-78
2021/10/10 03:51:55;;;;;;;84.22;8.95;;;;;;;;;;5072977;28;20052;-77
2021/10/10 03:56:52;;;;;;;55.95;8.55;;;;;;;;;;5076549;28;20036;-78
2021/10/10 03:59:20;;;;;;;15.25;8.10;;;;;;;;;;5075094;28;20051;-79
2021/10/10 04:01:46;;;;;;;15.68;7.40;;;;;;;;;;5076742;28;20036;-79
2021/10/10 04:04:11;;;;;;;21.77;6.93;;;;;;;;;;5076602;28;20401;-78
2021/10/10 04:06:37;;;;;;;10.70;7.20;;;;;;;;;;5076797;28;20095;-78
2021/10/10 04:09:02;;;;;;;13.57;7.10;;;;;;;;;;5076806;28;20031;-78
2021/10/10 04:11:27;;;;;;;21.45;8.75;;;;;;;;;;5077459;28;20113;-77
2021/10/10 04:13:53;;;;;;;20.73;7.60;;;;;;;;;;5087356;28;20036;-78
2021/10/10 04:16:18;;;;;;;11.50;7.78;;;;;;;;;;5098450;28;20032;-78
2021/10/10 04:18:44;;;;;;;13.80;7.57;;;;;;;;;;5099012;28;20047;-78
2021/10/10 04:21:09;;;;;;;14.38;7.03;;;;;;;;;;5099669;28;20036;-78
2021/10/10 04:23:34;;;;;;;19.23;6.43;;;;;;;;;;5098977;28;20028;-78
2021/10/10 04:26:00;;;;;;;11.98;6.70;;;;;;;;;;5099186;28;20103;-78
2021/10/10 04:28:26;;;;;;;22.27;6.60;;;;;;;;;;5099332;28;20131;-78
2021/10/10 04:30:52;;;;;;;10.45;6.55;;;;;;;;;;5098774;28;20501;-78
2021/10/10 04:33:17;;;;;;;13.98;6.85;;;;;;;;;;5099040;28;20036;-78
2021/10/10 04:35:43;;;;;;;22.35;6.60;;;;;;;;;;5097604;28;20032;-78
2021/10/10 04:38:10;;;;;;;8.88;6.28;;;;;;;;;;5098849;28;20043;-78
2021/10/10 04:40:35;;;;;;;24.90;6.32;;;;;;;;;;5099089;28;20073;-78
2021/10/10 04:43:05;;;;;;;14.65;7.65;;;;;;;;;;5110038;28;20443;-78
2021/10/10 04:45:31;;;;;;;19.27;6.68;;;;;;;;;;5119115;28;20062;-78
2021/10/10 04:47:56;;;;;;;8.45;6.22;;;;;;;;;;5119368;28;20032;-78
2021/10/10 04:50:21;;;;;;;9.15;6.38;;;;;;;;;;5119247;28;20456;-78
2021/10/10 04:52:47;;;;;;;16.30;6.65;;;;;;;;;;5119053;28;20031;-78
2021/10/10 04:55:12;;;;;;;20.63;6.47;;;;;;;;;;5117532;28;20039;-78
2021/10/10 04:57:38;;;;;;;13.35;6.70;;;;;;;;;;5118194;28;20049;-79
2021/10/10 05:00:04;;;;;;;40.42;7.68;;;;;;;;;;5118669;28;20084;-79
2021/10/10 05:02:29;;;;;;;17.90;7.20;;;;;;;;;;5118878;28;20092;-78
2021/10/10 05:04:54;;;;;;;24.67;6.85;;;;;;;;;;5118683;28;20043;-78
2021/10/10 05:07:20;;;;;;;31.85;6.65;;;;;;;;;;5119074;27;20027;-78
2021/10/10 05:09:46;;;;;;;15.07;6.15;;;;;;;;;;5118327;28;20037;-78
2021/10/10 05:12:13;;;;;;;9.63;6.18;;;;;;;;;;5111346;28;20572;-78
2021/10/10 05:14:39;;;;;;;15.77;7.07;;;;;;;;;;5096703;28;20053;-78
2021/10/10 05:17:05;;;;;;;12.73;5.90;;;;;;;;;;5097461;28;20823;-78
2021/10/10 05:19:30;;;;;;;36.78;6.53;;;;;;;;;;5095753;28;20047;-78
2021/10/10 05:21:56;;;;;;;29.88;6.43;;;;;;;;;;5097680;28;20036;-78
2021/10/10 05:24:21;;;;;;;53.63;6.70;;;;;;;;;;5096169;28;20028;-78
2021/10/10 05:26:47;;;;;;;33.60;7.60;;;;;;;;;;5097687;28;20038;-78
2021/10/10 05:29:12;;;;;;;44.88;7.03;;;;;;;;;;5095658;28;20547;-78
2021/10/10 05:31:38;;;;;;;59.60;7.38;;;;;;;;;;5099422;28;20043;-79
2021/10/10 05:34:03;;;;;;;230.48;9.65;;;;;;;;;;5098031;28;20040;-79
2021/10/10 05:36:28;;;;;;;56.65;7.10;;;;;;;;;;5096174;28;20028;-78
2021/10/10 05:38:54;;;;;;;66.10;7.82;;;;;;;;;;5097200;28;20048;-78
2021/10/10 05:41:19;;;;;;;221.80;9.48;;;;;;;;;;5096796;28;20039;-79
2021/10/10 05:43:45;;;;;;;72.65;7.72;;;;;;;;;;5097614;28;20116;-78
2021/10/10 05:46:10;;;;;;;136.93;7.68;;;;;;;;;;5096827;28;20032;-78
2021/10/10 05:48:35;;;;;;;374.65;11.23;;;;;;;;;;5098613;28;20035;-78
2021/10/10 05:51:01;;;;;;;342.38;11.20;;;;;;;;;;5098119;28;20570;-78
2021/10/10 05:53:26;;;;;;;286.73;10.50;;;;;;;;;;5097264;28;20519;-78
2021/10/10 05:55:58;;;;;;;71.50;8.07;;;;;;;;;;5096912;28;20032;-78
2021/10/10 05:58:26;;;;;;;74.35;8.13;;;;;;;;;;5095997;28;20401;-78
2021/10/10 06:00:52;;;;;;;55.70;10.32;;;;;;;;;;5095263;28;20093;-78
2021/10/10 06:03:18;;;;;;;157.05;9.63;;;;;;;;;;5096819;28;20032;-78
2021/10/10 06:05:43;;;;;;;20.20;8.40;;;;;;;;;;5096972;28;20036;-78
2021/10/10 06:08:08;;;;;;;23.65;8.50;;;;;;;;;;5096418;28;20036;-78
2021/10/10 06:10:35;;;;;;;43.63;8.25;;;;;;;;;;5096989;28;20066;-79
2021/10/10 06:13:01;;;;;;;92.53;8.15;;;;;;;;;;5085110;28;20040;-79
2021/10/10 06:15:27;;;;;;;52.35;8.05;;;;;;;;;;5077284;28;20455;-79
2021/10/10 06:17:52;;;;;;;13.30;6.65;;;;;;;;;;5077180;28;20428;-79
2021/10/10 06:20:18;;;;;;;15.23;7.10;;;;;;;;;;5077832;28;20028;-78
2021/10/10 06:22:43;;;;;;;27.67;6.60;;;;;;;;;;5078386;28;20036;-78
2021/10/10 06:25:09;;;;;;;10.57;6.30;;;;;;;;;;5077775;28;20028;-79
2021/10/10 06:27:34;;;;;;;8.55;6.45;;;;;;;;;;5077143;28;20044;-78
2021/10/10 06:30:00;;;;;;;22.75;7.70;;;;;;;;;;5075074;28;20035;-76
2021/10/10 06:32:25;;;;;;;11.98;6.55;;;;;;;;;;5073780;28;20032;-76
2021/10/10 06:34:50;;;;;;;15.20;7.32;;;;;;;;;;5073336;28;20041;-76
2021/10/10 06:37:16;;;;;;;11.27;7.53;;;;;;;;;;5072013;28;20040;-76
2021/10/10 06:39:41;;;;;;;14.60;7.30;;;;;;;;;;5072022;28;20055;-77
2021/10/10 06:42:07;;;;;;;34.38;7.93;;;;;;;;;;5077651;28;20040;-76
2021/10/10 06:44:34;;;;;;;69.03;7.55;;;;;;;;;;5092048;28;20028;-76
2021/10/10 06:47:01;;;;;;;42.40;8.40;;;;;;;;;;5093462;28;20036;-76
2021/10/10 06:49:26;;;;;;;128.10;8.90;;;;;;;;;;5093249;28;20071;-76
2021/10/10 06:51:52;;;;;;;9.02;7.22;;;;;;;;;;5093327;28;20063;-76
2021/10/10 06:54:17;;;;;;;89.90;7.10;;;;;;;;;;5093226;28;20040;-76
2021/10/10 06:56:43;;;;;;;19.48;6.15;;;;;;;;;;5091791;28;20389;-77
2021/10/10 06:59:08;;;;;;;175.73;9.25;;;;;;;;;;5092842;28;20035;-76
2021/10/10 07:01:34;;;;;;;32.90;8.23;;;;;;;;;;5093259;28;20031;-76
2021/10/10 07:03:59;;;;;;;140.07;9.70;;;;;;;;;;5093374;28;20036;-76
2021/10/10 07:06:25;;;;;;;20.80;8.82;;;;;;;;;;5093322;28;20028;-74
2021/10/10 07:08:51;;;;;;;53.58;9.82;;;;;;;;;;5093439;28;20189;-74
2021/10/10 07:11:18;;;;;;;32.67;8.60;;;;;;;;;;5093256;28;20039;-75
2021/10/10 07:13:43;;;;;;;11.63;7.30;;;;;;;;;;5092617;28;20072;-76
2021/10/10 07:16:09;;;;;;;29.73;8.50;;;;;;;;;;5093057;28;20075;-75
2021/10/10 07:26:17;;;;;;;10.30;7.03;;;;;;;;;;5093076;28;20473;-75
2021/10/10 07:28:43;;;;;;;15.38;8.00;;;;;;;;;;5093090;28;20055;-76
2021/10/10 07:31:08;;;;;;;15.43;7.82;;;;;;;;;;5096915;28;20040;-75
2021/10/10 07:33:33;;;;;;;14.40;7.50;;;;;;;;;;5097036;28;20036;-74
2021/10/10 07:35:59;;;;;;;10.90;7.15;;;;;;;;;;5096828;28;20032;-75
2021/10/10 07:38:24;;;;;;;19.20;7.43;;;;;;;;;;5096422;28;20052;-75
2021/10/10 07:40:49;;;;;;;16.13;7.15;;;;;;;;;;5096692;28;20036;-76
2021/10/10 07:43:15;;;;;;;27.38;7.75;;;;;;;;;;5095200;28;20028;-74
2021/10/10 07:45:43;;;;;;;23.27;7.93;;;;;;;;;;5096968;28;20036;-76
2021/10/10 07:48:10;;;;;;;19.00;8.60;;;;;;;;;;5096739;28;20036;-77
2021/10/10 07:50:36;;;;;;;12.77;7.53;;;;;;;;;;5096543;28;20119;-77
2021/10/10 07:53:03;;;;;;;12.00;7.60;;;;;;;;;;5096243;28;20055;-76
2021/10/10 07:55:29;;;;;;;10.80;7.18;;;;;;;;;;5096699;28;20032;-76
2021/10/10 07:57:55;;;;;;;37.00;7.95;;;;;;;;;;5096119;28;20047;-76
2021/10/10 08:00:20;;;;;;;40.85;7.50;;;;;;;;;;5096338;28;20044;-76
2021/10/10 08:02:49;;;;;;;12.27;7.32;;;;;;;;;;5096393;28;20054;-76
2021/10/10 08:05:16;;;;;;;10.52;7.38;;;;;;;;;;5096188;28;20072;-74
2021/10/10 08:07:42;;;;;;;11.77;7.05;;;;;;;;;;5096125;28;20040;-75
2021/10/10 08:10:07;;;;;;;17.40;8.32;;;;;;;;;;5096097;28;20032;-74
2021/10/10 08:12:33;;;;;;;14.40;6.97;;;;;;;;;;5095802;28;20127;-74
2021/10/10 08:14:58;;;;;;;16.00;7.07;;;;;;;;;;5096002;28;20084;-75
2021/10/10 08:17:24;;;;;;;13.20;7.25;;;;;;;;;;5096130;28;20086;-75
2021/10/10 08:19:49;;;;;;;9.45;6.90;;;;;;;;;;5095983;28;20126;-74
2021/10/10 08:22:16;;;;;;;43.45;7.05;;;;;;;;;;5095847;28;20071;-74
2021/10/10 08:24:41;;;;;;;11.18;7.80;;;;;;;;;;5095929;28;20036;-74
2021/10/10 08:27:07;;;;;;;11.93;8.40;;;;;;;;;;5095443;28;20397;-74
2021/10/10 08:29:32;;;;;;;15.07;8.27;;;;;;;;;;5095882;28;20462;-74
2021/10/10 08:31:57;;;;;;;11.57;8.27;;;;;;;;;;5095429;28;20080;-75
2021/10/10 08:34:23;;;;;;;12.50;7.68;;;;;;;;;;5095690;28;20065;-75
2021/10/10 08:36:48;;;;;;;11.65;7.85;;;;;;;;;;5095694;28;20051;-75
2021/10/10 08:39:14;;;;;;;14.07;7.20;;;;;;;;;;5095299;28;20157;-74
2021/10/10 08:41:45;;;;;;;12.75;7.47;;;;;;;;;;5094307;28;20111;-74
2021/10/10 08:44:16;;;;;;;12.70;8.50;;;;;;;;;;5093698;28;20044;-74
2021/10/10 08:46:41;;;;;;;11.07;7.95;;;;;;;;;;5093686;28;20046;-74
2021/10/10 08:49:07;;;;;;;11.20;7.82;;;;;;;;;;5095277;28;20036;-74
2021/10/10 08:51:34;;;;;;;45.47;8.18;;;;;;;;;;5094368;28;20377;-74
2021/10/10 08:54:00;;;;;;;11.05;7.70;;;;;;;;;;5094859;28;20060;-74
2021/10/10 08:56:25;;;;;;;8.65;6.00;;;;;;;;;;5095070;28;20075;-76
2021/10/10 08:58:51;;;;;;;9.43;7.28;;;;;;;;;;5094630;28;20069;-80
2021/10/10 09:01:19;;;;;;;12.85;7.22;;;;;;;;;;5095713;28;20028;-77
2021/10/10 09:03:57;;;;;;;9.45;7.18;;;;;;;;;;5094923;28;20028;-77
2021/10/10 09:06:23;;;;;;;11.88;7.80;;;;;;;;;;5094504;28;20059;-76
2021/10/10 09:08:49;;;;;;;9.70;7.07;;;;;;;;;;5094910;28;20063;-77
2021/10/10 09:11:14;;;;;;;14.32;7.45;;;;;;;;;;5093297;28;20032;-77
2021/10/10 09:13:41;;;;;;;10.57;7.22;;;;;;;;;;5084800;28;20038;-76
2021/10/10 09:16:09;;;;;;;9.77;7.18;;;;;;;;;;5093919;28;20035;-76
2021/10/10 09:18:40;;;;;;;12.85;7.85;;;;;;;;;;5094875;28;20469;-76
2021/10/10 09:21:13;;;;;;;22.70;14.00;;;;;;;;;;5094899;28;20387;-76
2021/10/10 09:23:39;;;;;;;11.45;7.95;;;;;;;;;;5094707;28;20118;-77
2021/10/10 09:26:05;;;;;;;11.50;7.70;;;;;;;;;;5094850;28;20100;-77
2021/10/10 09:28:33;;;;;;;16.88;8.07;;;;;;;;;;5094320;28;20085;-77
2021/10/10 09:31:06;;;;;;;13.52;8.95;;;;;;;;;;5094568;28;20558;-77
2021/10/10 09:33:47;;;;;;;13.02;8.00;;;;;;;;;;5093487;28;20032;-77
2021/10/10 09:36:35;;;;;;;12.60;8.32;;;;;;;;;;5094642;28;20051;-77
2021/10/10 09:39:09;;;;;;;12.20;7.70;;;;;;;;;;5093969;28;20055;-78
2021/10/10 09:44:22;;;;;;;10.00;7.25;;;;;;;;;;5084978;28;20475;-77
2021/10/10 09:46:49;;;;;;;14.00;8.00;;;;;;;;;;5074009;28;20044;-77
2021/10/10 09:49:32;;;;;;;12.00;6.95;;;;;;;;;;5074794;28;20056;-77
2021/10/10 09:52:08;;;;;;;14.32;6.85;;;;;;;;;;5072121;28;20048;-78
2021/10/10 09:54:52;;;;;;;11.20;7.00;;;;;;;;;;5074789;28;20094;-78
2021/10/10 09:57:19;;;;;;;12.73;7.15;;;;;;;;;;5076707;28;20040;-78
2021/10/10 09:59:45;;;;;;;8.38;6.05;;;;;;;;;;5076160;28;20093;-78
2021/10/10 10:02:10;;;;;;;11.20;7.00;;;;;;;;;;5075906;28;20029;-76
2021/10/10 10:04:47;;;;;;;12.20;6.75;;;;;;;;;;5075217;28;20025;-77
2021/10/10 10:07:15;;;;;;;12.10;6.90;;;;;;;;;;5073938;28;20055;-74
2021/10/10 10:09:41;;;;;;;9.82;6.68;;;;;;;;;;5073175;28;20446;-76
2021/10/10 10:12:07;;;;;;;11.32;6.35;;;;;;;;;;5073539;28;20035;-77
2021/10/10 10:14:33;;;;;;;10.30;6.72;;;;;;;;;;5085650;28;20050;-77
2021/10/10 10:17:01;;;;;;;10.02;5.97;;;;;;;;;;5093599;28;20082;-77
2021/10/10 10:19:28;;;;;;;13.80;7.10;;;;;;;;;;5093891;28;20032;-77
2021/10/10 10:21:55;;;;;;;9.43;5.80;;;;;;;;;;5094003;28;20056;-77
2021/10/10 10:24:22;;;;;;;9.60;6.30;;;;;;;;;;5093699;28;20036;-77
2021/10/10 10:26:48;;;;;;;10.10;5.43;;;;;;;;;;5093491;28;20036;-77
2021/10/10 10:29:14;;;;;;;9.68;7.03;;;;;;;;;;5093152;28;20478;-77
2021/10/10 10:31:43;;;;;;;10.27;6.97;;;;;;;;;;5094576;28;20379;-76
2021/10/10 10:34:21;;;;;;;11.07;6.60;;;;;;;;;;5093512;28;20044;-76
2021/10/10 10:36:50;;;;;;;9.13;6.78;;;;;;;;;;5093129;28;20044;-76
2021/10/10 10:39:45;;;;;;;9.77;6.68;;;;;;;;;;5093160;28;20048;-77
2021/10/10 10:42:22;;;;;;;13.40;6.85;;;;;;;;;;5090770;28;20051;-77
2021/10/10 10:44:48;;;;;;;8.52;5.22;;;;;;;;;;5092360;28;20119;-77
2021/10/10 10:47:17;;;;;;;14.73;6.30;;;;;;;;;;5093426;28;20028;-76
2021/10/10 10:49:54;;;;;;;8.95;5.78;;;;;;;;;;5093181;28;20377;-76
2021/10/10 10:52:37;;;;;;;17.55;6.13;;;;;;;;;;5093854;28;20365;-77
2021/10/10 10:55:12;;;;;;;9.55;5.95;;;;;;;;;;5092880;28;20079;-77
2021/10/10 10:57:57;;;;;;;9.43;5.05;;;;;;;;;;5092360;28;20034;-77
2021/10/10 11:00:25;;;;;;;8.77;5.45;;;;;;;;;;5091108;28;20054;-77
2021/10/10 11:03:17;;;;;;;10.10;6.55;;;;;;;;;;5092862;28;20044;-77
2021/10/10 11:05:54;;;;;;;7.00;4.82;;;;;;;;;;5097406;28;20036;-77
2021/10/10 11:08:22;;;;;;;9.32;5.25;;;;;;;;;;5097388;28;20036;-77
2021/10/10 11:10:59;;;;;;;11.63;6.32;;;;;;;;;;5094094;28;20090;-77
2021/10/10 11:13:27;;;;;;;11.38;6.20;;;;;;;;;;5094969;28;20122;-77
2021/10/10 11:16:03;;;;;;;8.98;5.50;;;;;;;;;;5094151;28;20531;-77
2021/10/10 11:18:29;;;;;;;;;;;;;;;;;;5095284;28;20378;-77
2021/10/10 11:21:06;;;;;;;8.97;5.70;;;;;;;;;;5095060;28;19919;-77
2021/10/10 11:23:33;;;;;;;10.63;5.63;;;;;;;;;;5094800;28;20044;-77
2021/10/10 11:26:03;;;;;;;10.50;6.03;;;;;;;;;;5097052;28;20024;-77
2021/10/10 11:28:41;;;;;;;10.23;5.70;;;;;;;;;;5097097;28;20042;-77
2021/10/10 11:31:09;;;;;;;10.93;6.20;;;;;;;;;;5097053;28;20044;-77
2021/10/10 11:34:03;;;;;;;10.52;5.50;;;;;;;;;;5097096;28;20028;-76
2021/10/10 11:36:31;;;;;;;11.00;5.57;;;;;;;;;;5094514;28;20063;-77
2021/10/10 11:38:57;;;;;;;9.52;5.65;;;;;;;;;;5096775;28;20113;-78
2021/10/10 11:41:27;;;;;;;9.57;5.40;;;;;;;;;;5096694;28;20036;-77
2021/10/10 11:43:59;;;;;;;11.60;5.45;;;;;;;;;;5096802;28;20114;-77
2021/10/10 11:46:25;;;;;;;10.55;5.38;;;;;;;;;;5096417;28;20036;-77
2021/10/10 11:48:53;;;;;;;10.82;5.55;;;;;;;;;;5096559;28;20464;-77
2021/10/10 11:51:36;;;;;;;11.38;5.40;;;;;;;;;;5096632;28;20071;-77
2021/10/10 11:54:04;;;;;;;12.93;5.13;;;;;;;;;;5096633;28;20035;-77
2021/10/10 11:56:30;;;;;;;9.48;4.63;;;;;;;;;;5096417;28;20064;-77
2021/10/10 11:59:11;;;;;;;8.35;4.60;;;;;;;;;;5094710;28;20078;-77
2021/10/10 12:01:37;;;;;;;8.60;4.53;;;;;;;;;;5096541;28;20519;-77
2021/10/10 12:04:03;;;;;;;8.02;4.30;;;;;;;;;;5096383;28;20028;-77
2021/10/10 12:06:29;;;;;;;9.90;4.40;;;;;;;;;;5096487;28;20024;-77
2021/10/10 12:09:11;;;;;;;8.85;4.28;;;;;;;;;;5096325;28;20073;-77
2021/10/10 12:11:38;;;;;;;9.82;4.13;;;;;;;;;;5095949;28;20122;-77
2021/10/10 12:14:04;;;;;;;8.40;3.72;;;;;;;;;;5095852;28;20089;-77
2021/10/10 12:16:42;;;;;;;9.02;4.80;;;;;;;;;;5095462;28;20036;-77
2021/10/10 12:19:08;;;;;;;10.65;4.40;;;;;;;;;;5096080;28;20036;-77
2021/10/10 12:21:35;;;;;;;10.68;3.75;;;;;;;;;;5095969;28;20078;-77
2021/10/10 12:24:11;;;;;;;13.27;4.43;;;;;;;;;;5095961;28;20060;-77
2021/10/10 12:26:50;;;;;;;;;;;;;;;;;;5096029;28;20068;-77
2021/10/10 12:29:29;;;;;;;11.73;3.97;;;;;;;;;;5095946;28;20373;-77
2021/10/10 12:31:56;;;;;;;11.25;4.78;;;;;;;;;;5095908;28;20036;-77
2021/10/10 12:34:31;;;;;;;6.63;3.85;;;;;;;;;;5095891;28;20077;-77
2021/10/10 12:36:56;;;;;;;10.55;4.22;;;;;;;;;;5095830;28;20081;-77
2021/10/10 12:39:42;;;;;;;14.10;4.30;;;;;;;;;;5095579;28;20056;-77
2021/10/10 12:42:07;;;;;;;8.60;4.80;;;;;;;;;;5095498;28;20040;-77
2021/10/10 12:44:33;;;;;;;8.38;4.32;;;;;;;;;;5095487;28;20106;-77
2021/10/10 12:47:00;;;;;;;8.73;4.50;;;;;;;;;;5094233;28;20538;-77
2021/10/10 12:49:31;;;;;;;9.65;4.25;;;;;;;;;;5095336;28;20044;-77
2021/10/10 12:51:58;;;;;;;6.25;3.95;;;;;;;;;;5095679;28;20054;-76
2021/10/10 12:54:26;;;;;;;5.45;3.90;;;;;;;;;;5095088;28;20078;-77
2021/10/10 12:56:58;;;;;;;7.78;3.78;;;;;;;;;;5095174;28;20036;-77
2021/10/10 12:59:24;;;;;;;10.40;4.63;;;;;;;;;;5095234;28;20093;-77
2021/10/10 13:01:49;;;;;;;7.00;3.75;;;;;;;;;;5095152;28;20028;-77
2021/10/10 13:04:15;;;;;;;7.28;3.95;;;;;;;;;;5095268;28;20032;-77
2021/10/10 13:06:44;;;;;;;5.43;3.88;;;;;;;;;;5094153;28;20109;-77
2021/10/10 13:09:11;;;;;;;12.52;3.75;;;;;;;;;;5095038;28;20559;-77
2021/10/10 13:11:36;;;;;;;7.15;3.65;;;;;;;;;;5094978;28;20040;-77
2021/10/10 13:14:02;;;;;;;6.60;4.10;;;;;;;;;;5094064;28;20039;-77
2021/10/10 13:16:27;;;;;;;9.88;4.10;;;;;;;;;;5094858;28;20036;-77
2021/10/10 13:18:52;;;;;;;8.68;4.75;;;;;;;;;;5094832;28;20044;-76
2021/10/10 13:21:18;;;;;;;10.85;3.92;;;;;;;;;;5095052;28;20028;-77
2021/10/10 13:23:44;;;;;;;7.47;4.00;;;;;;;;;;5094892;28;20076;-77
2021/10/10 13:26:09;;;;;;;5.82;3.72;;;;;;;;;;5093378;28;20039;-77
2021/10/10 13:28:35;;;;;;;11.32;4.53;;;;;;;;;;5094709;28;20440;-76
2021/10/10 13:31:02;;;;;;;6.70;4.15;;;;;;;;;;5094415;28;20047;-77
2021/10/10 13:33:29;;;;;;;10.00;4.53;;;;;;;;;;5094674;28;20445;-77
2021/10/10 13:35:55;;;;;;;10.02;4.22;;;;;;;;;;5094503;28;20036;-76
2021/10/10 13:38:23;;;;;;;12.43;3.95;;;;;;;;;;5094108;28;20669;-77
2021/10/10 13:40:50;;;;;;;6.65;4.07;;;;;;;;;;5093239;28;20135;-77
2021/10/10 13:43:16;;;;;;;5.07;3.42;;;;;;;;;;5093290;28;20036;-77
2021/10/10 13:45:41;;;;;;;9.10;3.70;;;;;;;;;;5094407;28;20024;-77
2021/10/10 13:48:06;;;;;;;7.65;3.97;;;;;;;;;;5094310;28;20035;-77
2021/10/10 13:50:33;;;;;;;9.27;3.90;;;;;;;;;;5094497;28;20042;-77
2021/10/10 13:52:59;;;;;;;8.93;3.60;;;;;;;;;;5094517;28;20546;-77
2021/10/10 13:55:25;;;;;;;7.30;3.33;;;;;;;;;;5094234;28;20115;-77
2021/10/10 13:57:50;;;;;;;7.35;3.80;;;;;;;;;;5093976;28;20458;-77
2021/10/10 14:00:15;;;;;;;4.85;3.45;;;;;;;;;;5094132;28;20051;-77
2021/10/10 14:02:41;;;;;;;5.53;3.67;;;;;;;;;;5094160;28;20047;-77
2021/10/10 14:05:06;;;;;;;7.68;3.25;;;;;;;;;;5094143;28;20028;-77
2021/10/10 14:07:32;;;;;;;6.40;3.47;;;;;;;;;;5094193;28;20035;-77
2021/10/10 14:09:58;;;;;;;8.48;3.67;;;;;;;;;;5093231;28;20405;-77
2021/10/10 14:12:24;;;;;;;4.72;3.17;;;;;;;;;;5094060;28;20386;-77
2021/10/10 14:14:49;;;;;;;10.88;3.58;;;;;;;;;;5086529;28;20028;-77
2021/10/10 14:17:14;;;;;;;10.07;4.18;;;;;;;;;;5065765;28;20036;-77
2021/10/10 14:19:40;;;;;;;7.55;3.50;;;;;;;;;;5063841;28;20024;-78
2021/10/10 14:22:05;;;;;;;10.13;3.90;;;;;;;;;;5063665;28;20016;-78
2021/10/10 14:24:30;;;;;;;6.80;3.63;;;;;;;;;;5057838;28;20710;-77
2021/10/10 14:26:56;;;;;;;12.95;4.57;;;;;;;;;;5043330;28;20119;-78
2021/10/10 14:29:22;;;;;;;7.30;3.70;;;;;;;;;;5044427;28;20019;-78
2021/10/10 14:31:47;;;;;;;6.25;3.95;;;;;;;;;;5044976;28;20088;-79
2021/10/10 14:34:13;;;;;;;7.63;3.75;;;;;;;;;;5044760;28;20672;-78
2021/10/10 14:36:38;;;;;;;10.23;4.47;;;;;;;;;;5044431;28;20110;-78
2021/10/10 14:39:05;;;;;;;9.50;4.10;;;;;;;;;;5053487;28;20151;-78
2021/10/10 14:41:52;;;;;;;7.28;4.07;;;;;;;;;;5058543;28;20660;-78
2021/10/10 14:44:31;;;;;;;7.43;4.38;;;;;;;;;;5063816;28;20034;-78
2021/10/10 14:49:32;;;;;;;6.72;4.38;;;;;;;;;;5062114;28;20405;-78